Alpine, Kentucky
Current Conditions -  °F | °C
As of 7:55 PM on Monday 26 Jan 2015 (Local Time) from KSME Reporting Station
Overcast Overcast  
Wind Chill: -1°   Ceiling: 2100
Heat Index: -1°   Visibility: 10mi
Dew Point: -5°   Wind: 0mph
Humidity: 75%   Direction: NA
Pressure: 29.97"   Gusts: NA
Location:  36.938°N, 84.5342°W
Report Text: KSME 270055Z AUTO 00000KT 10SM OVC021 M01/M05 A2997 RMK AO2
Loading
Personal Weather Stations






























Interactive Weather Map New forecast layout! Learn more

10-Day Weather Forecast

Advertisements
Track Severe Weather on mobile